createdAt,value
2023-04-15T00:01:06.008Z,53.72
2023-04-15T00:04:10.526Z,53.70
2023-04-15T00:07:16.369Z,53.22
2023-04-15T00:10:20.380Z,52.78
2023-04-15T00:13:25.020Z,54.10
2023-04-15T00:16:28.919Z,53.30
2023-04-15T00:19:33.469Z,52.83
2023-04-15T00:22:38.891Z,52.62
2023-04-15T00:25:42.453Z,52.99
2023-04-15T00:28:46.139Z,52.62
2023-04-15T00:31:51.126Z,52.89
2023-04-15T00:34:55.491Z,52.45
2023-04-15T00:38:00.770Z,52.42
2023-04-15T00:41:05.316Z,52.52
2023-04-15T00:44:09.380Z,52.36
2023-04-15T00:47:19.467Z,52.41
2023-04-15T00:50:23.799Z,52.25
2023-04-15T00:53:29.235Z,52.71
2023-04-15T00:56:36.260Z,52.57
2023-04-15T00:59:40.087Z,52.66
2023-04-15T01:02:44.079Z,52.90
2023-04-15T01:05:48.348Z,52.86
2023-04-15T01:08:54.159Z,53.82
2023-04-15T01:11:58.678Z,53.58
2023-04-15T01:15:03.976Z,53.19
2023-04-15T01:18:08.503Z,53.59
2023-04-15T01:21:14.715Z,53.44
2023-04-15T01:24:21.423Z,53.41
2023-04-15T01:27:27.116Z,53.29
2023-04-15T01:30:30.930Z,53.27
2023-04-15T01:33:34.349Z,52.98
2023-04-15T01:36:56.906Z,52.91
2023-04-15T01:40:00.507Z,53.72
2023-04-15T01:43:05.562Z,53.65
2023-04-15T01:46:10.281Z,53.02
2023-04-15T01:49:15.432Z,53.78
2023-04-15T01:52:20.125Z,54.33
2023-04-15T01:55:25.570Z,53.57
2023-04-15T01:58:31.729Z,53.85
2023-04-15T02:01:36.979Z,54.13
2023-04-15T02:04:41.688Z,54.09
2023-04-15T02:07:47.424Z,53.69
2023-04-15T02:10:52.841Z,54.06
2023-04-15T02:13:59.320Z,53.98
2023-04-15T02:17:07.480Z,53.99
2023-04-15T02:20:13.329Z,53.86
2023-04-15T02:23:18.325Z,54.12
2023-04-15T02:26:23.513Z,54.76
2023-04-15T02:29:30.009Z,55.30
2023-04-15T02:32:35.276Z,56.12
2023-04-15T02:35:44.284Z,55.39
2023-04-15T02:38:49.616Z,55.53
2023-04-15T02:41:55.361Z,55.06
2023-04-15T02:45:04.503Z,55.26
2023-04-15T02:48:12.361Z,55.42
2023-04-15T02:51:19.961Z,56.71
2023-04-15T02:54:25.955Z,57.52
2023-04-15T02:57:31.112Z,56.92
2023-04-15T03:00:42.773Z,55.71
2023-04-15T03:03:47.976Z,55.55
2023-04-15T03:06:52.669Z,55.04
2023-04-15T03:09:57.932Z,55.04
2023-04-15T03:13:03.153Z,55.53
2023-04-15T03:16:11.345Z,55.13
2023-04-15T03:19:16.691Z,54.83
2023-04-15T03:22:23.205Z,54.37
2023-04-15T03:30:15.058Z,53.65
2023-04-15T03:33:21.284Z,54.10
2023-04-15T03:36:27.331Z,54.05
2023-04-15T03:39:32.331Z,54.48
2023-04-15T03:42:37.345Z,54.20
2023-04-15T03:45:41.979Z,54.10
2023-04-15T03:48:48.338Z,55.05
2023-04-15T03:51:53.417Z,55.22
2023-04-15T03:54:59.544Z,54.84
2023-04-15T03:58:04.218Z,54.73
2023-04-15T04:01:09.627Z,54.46
2023-04-15T04:04:15.989Z,54.13
2023-04-15T04:07:21.011Z,54.87
2023-04-15T04:10:25.744Z,54.52
2023-04-15T04:13:30.775Z,54.42
2023-04-15T04:16:35.822Z,54.28
2023-04-15T04:19:42.694Z,54.00
2023-04-15T04:22:47.416Z,54.00
2023-04-15T04:25:52.706Z,53.80
2023-04-15T04:28:58.864Z,54.12
2023-04-15T04:32:04.237Z,53.80
2023-04-15T04:35:11.463Z,53.32
2023-04-15T04:38:17.107Z,53.46
2023-04-15T04:41:23.211Z,53.34
2023-04-15T04:44:28.279Z,53.44
2023-04-15T04:47:33.218Z,53.48
2023-04-15T04:50:39.688Z,53.35
2023-04-15T04:53:44.523Z,53.27
2023-04-15T04:56:49.663Z,53.00
2023-04-15T04:59:54.335Z,54.06
2023-04-15T05:02:59.805Z,54.28
2023-04-15T05:06:08.779Z,53.88
2023-04-15T05:09:13.826Z,55.57
2023-04-15T05:12:18.582Z,55.25
2023-04-15T05:15:23.956Z,54.80
2023-04-15T05:18:29.164Z,55.73
2023-04-15T05:21:37.578Z,54.97
2023-04-15T05:24:44.416Z,54.92
2023-04-15T05:27:49.650Z,54.09
2023-04-15T05:30:54.481Z,53.89
2023-04-15T05:33:59.911Z,53.60
2023-04-15T05:37:06.052Z,53.12
2023-04-15T05:40:11.731Z,52.99
2023-04-15T05:43:16.668Z,52.60
2023-04-15T05:46:22.821Z,52.13
2023-04-15T05:49:27.852Z,51.36
2023-04-15T05:52:35.908Z,49.85
2023-04-15T05:55:41.246Z,49.48
2023-04-15T05:58:47.532Z,48.91
2023-04-15T06:01:53.805Z,48.57
2023-04-15T06:05:01.462Z,48.47
2023-04-15T06:08:08.418Z,48.30
2023-04-15T06:11:13.949Z,49.53
2023-04-15T06:14:18.809Z,49.12
2023-04-15T06:17:24.360Z,48.45
2023-04-15T06:20:29.658Z,48.26
2023-04-15T06:23:37.875Z,47.18
2023-04-15T06:26:45.199Z,46.53
2023-04-15T06:29:50.302Z,45.45
2023-04-15T06:32:56.829Z,44.15
2023-04-15T06:36:02.512Z,43.10
2023-04-15T06:39:08.800Z,42.05
2023-04-15T06:42:14.000Z,42.04
2023-04-15T06:45:19.018Z,40.24
2023-04-15T06:48:24.469Z,36.30
2023-04-15T06:51:29.197Z,36.42
2023-04-15T06:54:35.839Z,34.81
2023-04-15T06:57:40.718Z,34.27
2023-04-15T07:00:46.233Z,31.70
2023-04-15T07:03:51.818Z,32.60
2023-04-15T07:07:01.543Z,30.56
2023-04-15T07:10:12.048Z,28.99
2023-04-15T07:13:21.360Z,28.77
2023-04-15T07:16:27.857Z,29.16
2023-04-15T07:19:35.056Z,27.76
2023-04-15T07:22:40.327Z,26.99
2023-04-15T07:25:47.746Z,27.98
2023-04-15T07:28:52.926Z,28.29
2023-04-15T07:31:57.916Z,27.03
2023-04-15T07:35:03.792Z,27.25
2023-04-15T07:38:08.881Z,26.81
2023-04-15T07:41:15.917Z,25.49
2023-04-15T07:44:20.968Z,26.01
2023-04-15T07:47:25.969Z,25.46
2023-04-15T07:50:30.950Z,23.22
2023-04-15T07:53:35.726Z,24.05
2023-04-15T07:56:42.162Z,23.45
2023-04-15T07:59:46.943Z,23.98
2023-04-15T08:02:53.334Z,23.27
2023-04-15T08:05:58.312Z,23.87
2023-04-15T08:09:03.636Z,25.92
2023-04-15T08:12:12.593Z,26.45
2023-04-15T08:15:18.163Z,28.22
2023-04-15T08:18:22.942Z,29.70
2023-04-15T08:21:30.825Z,31.35
2023-04-15T08:24:35.905Z,29.85
2023-04-15T08:27:45.777Z,30.84
2023-04-15T08:31:16.625Z,30.73
2023-04-15T08:34:22.237Z,31.46
2023-04-15T08:37:26.985Z,31.63
2023-04-15T08:40:42.740Z,32.93
2023-04-15T08:43:54.659Z,32.43
2023-04-15T08:47:02.943Z,32.22
2023-04-15T08:50:11.830Z,33.42
2023-04-15T08:53:17.245Z,33.45
2023-04-15T08:56:26.202Z,32.83
2023-04-15T08:59:33.920Z,33.87
2023-04-15T09:02:39.077Z,34.12
2023-04-15T09:05:44.506Z,34.88
2023-04-15T09:08:49.244Z,35.95
2023-04-15T09:11:55.234Z,34.42
2023-04-15T09:15:04.984Z,35.33
2023-04-15T09:18:13.247Z,35.91
2023-04-15T09:21:19.254Z,34.65
2023-04-15T09:24:28.215Z,35.66
2023-04-15T09:27:39.318Z,35.33
2023-04-15T09:30:49.748Z,35.36
2023-04-15T09:33:57.979Z,34.56
2023-04-15T09:37:03.556Z,36.64
2023-04-15T09:40:10.247Z,35.69
2023-04-15T09:43:17.405Z,34.99
2023-04-15T09:46:42.336Z,34.34
2023-04-15T09:55:04.043Z,33.43
2023-04-15T09:58:11.872Z,33.24
2023-04-15T10:01:17.184Z,34.40
2023-04-15T10:04:23.926Z,33.84
2023-04-15T10:07:29.735Z,33.07
2023-04-15T10:10:34.946Z,34.24
2023-04-15T10:13:40.856Z,33.96
2023-04-15T10:16:49.658Z,34.18
2023-04-15T10:19:56.268Z,33.78
2023-04-15T10:23:01.141Z,33.92
2023-04-15T10:26:07.042Z,33.34
2023-04-15T10:29:12.463Z,33.46
2023-04-15T10:32:20.184Z,33.89
2023-04-15T10:35:27.007Z,33.07
2023-04-15T10:38:36.844Z,32.44
2023-04-15T10:41:41.532Z,33.05
2023-04-15T10:44:49.958Z,33.52
2023-04-15T10:47:57.539Z,32.64
2023-04-15T10:51:05.269Z,34.48
2023-04-15T10:54:14.952Z,33.24
2023-04-15T10:57:24.881Z,32.88
2023-04-15T11:00:31.923Z,33.89
2023-04-15T11:03:43.873Z,31.87
2023-04-15T11:07:08.680Z,32.54
2023-04-15T11:11:02.935Z,31.32
2023-04-15T11:14:15.930Z,31.81
2023-04-15T11:17:30.042Z,31.70
2023-04-15T11:20:35.435Z,31.63
2023-04-15T11:23:44.332Z,30.03
2023-04-15T11:26:49.469Z,31.45
2023-04-15T11:29:56.579Z,30.71
2023-04-15T11:33:03.876Z,31.22
2023-04-15T11:36:09.127Z,30.74
2023-04-15T11:39:16.926Z,30.60
2023-04-15T11:42:21.533Z,30.84
2023-04-15T11:45:26.850Z,30.64
2023-04-15T11:48:33.885Z,30.37
2023-04-15T11:51:39.146Z,29.18
2023-04-15T11:54:44.012Z,29.85
2023-04-15T11:57:47.776Z,29.66
2023-04-15T12:00:54.149Z,29.74
2023-04-15T12:03:59.927Z,28.12
2023-04-15T12:07:06.653Z,29.40
2023-04-15T12:10:11.982Z,29.89
2023-04-15T12:13:16.387Z,29.30
2023-04-15T12:16:20.911Z,29.29
2023-04-15T12:19:26.679Z,30.07
2023-04-15T12:22:30.588Z,30.32
2023-04-15T12:25:38.809Z,28.54
2023-04-15T12:28:42.741Z,28.58
2023-04-15T12:31:54.062Z,27.52
2023-04-15T12:34:58.304Z,28.55
2023-04-15T12:38:01.708Z,29.38
2023-04-15T12:41:06.925Z,28.33
2023-04-15T12:44:10.395Z,27.99
2023-04-15T12:47:14.687Z,28.84
2023-04-15T12:50:18.628Z,28.78
2023-04-15T12:53:23.180Z,28.50
2023-04-15T12:56:28.095Z,28.35
2023-04-15T12:59:32.079Z,28.10
2023-04-15T13:02:35.596Z,27.36
2023-04-15T13:05:40.699Z,27.62
2023-04-15T13:08:57.267Z,27.90
2023-04-15T13:12:05.473Z,28.05
2023-04-15T13:15:11.433Z,27.74
2023-04-15T13:18:16.030Z,29.23
2023-04-15T13:21:21.589Z,28.25
2023-04-15T13:24:25.848Z,28.27
2023-04-15T13:27:31.570Z,28.59
2023-04-15T13:30:35.592Z,29.15
2023-04-15T13:33:39.174Z,29.41
2023-04-15T13:36:43.431Z,28.99
2023-04-15T13:39:50.504Z,28.85
2023-04-15T13:43:04.876Z,30.41
2023-04-15T13:46:08.689Z,29.22
2023-04-15T13:49:12.713Z,28.98
2023-04-15T13:52:16.282Z,28.61
2023-04-15T13:55:22.230Z,28.74
2023-04-15T13:58:30.637Z,29.18
2023-04-15T14:01:35.495Z,28.78
2023-04-15T14:04:39.276Z,28.42
2023-04-15T14:07:43.578Z,28.91
2023-04-15T14:10:48.667Z,28.35
2023-04-15T14:13:53.803Z,29.04
2023-04-15T14:16:58.848Z,28.62
2023-04-15T14:20:02.823Z,29.09
2023-04-15T14:23:06.342Z,28.71
2023-04-15T14:26:28.359Z,29.20
2023-04-15T14:29:33.203Z,29.40
2023-04-15T14:32:36.944Z,29.28
2023-04-15T14:35:40.607Z,29.40
2023-04-15T14:38:44.331Z,29.91
2023-04-15T14:41:48.192Z,29.90
2023-04-15T14:44:53.472Z,30.37
2023-04-15T14:47:57.859Z,30.28
2023-04-15T14:51:03.246Z,30.40
2023-04-15T14:54:06.905Z,30.19
2023-04-15T14:57:10.943Z,30.36
2023-04-15T15:00:16.496Z,31.18
2023-04-15T15:03:20.608Z,30.38
2023-04-15T15:06:24.343Z,30.68
2023-04-15T15:09:28.299Z,31.19
2023-04-15T15:12:31.854Z,30.89
2023-04-15T15:15:38.691Z,30.61
2023-04-15T15:18:42.564Z,30.67
2023-04-15T15:21:50.117Z,30.49
2023-04-15T15:24:53.703Z,30.78
2023-04-15T15:27:58.771Z,31.00
2023-04-15T15:31:04.579Z,30.83
2023-04-15T15:34:09.581Z,31.09
2023-04-15T15:37:15.831Z,30.99
2023-04-15T15:40:19.671Z,30.85
2023-04-15T15:43:23.125Z,31.27
2023-04-15T15:46:31.448Z,30.65
2023-04-15T15:49:35.127Z,30.66
2023-04-15T15:52:39.505Z,30.82
2023-04-15T15:55:42.947Z,31.28
2023-04-15T15:58:46.866Z,31.52
2023-04-15T16:01:52.507Z,31.38
2023-04-15T16:04:58.120Z,30.80
2023-04-15T16:08:01.888Z,30.80
2023-04-15T16:11:06.421Z,31.43
2023-04-15T16:14:11.035Z,31.07
2023-04-15T16:17:16.431Z,31.35
2023-04-15T16:20:21.456Z,31.53
2023-04-15T16:23:25.227Z,31.64
2023-04-15T16:26:28.913Z,31.36
2023-04-15T16:29:34.456Z,31.56
2023-04-15T16:32:39.383Z,31.79
2023-04-15T16:35:43.212Z,31.79
2023-04-15T16:38:48.829Z,31.75
2023-04-15T16:41:52.654Z,31.83
2023-04-15T16:44:56.681Z,31.91
2023-04-15T16:48:01.935Z,32.84
2023-04-15T16:51:05.907Z,33.32
2023-04-15T16:54:10.108Z,33.46
2023-04-15T16:57:13.718Z,33.07
2023-04-15T17:00:17.815Z,33.73
2023-04-15T17:03:23.422Z,34.61
2023-04-15T17:06:27.864Z,35.87
2023-04-15T17:09:31.356Z,36.65
2023-04-15T17:12:35.957Z,36.16
2023-04-15T17:15:40.727Z,36.84
2023-04-15T17:19:01.419Z,37.98
2023-04-15T17:22:06.419Z,39.17
2023-04-15T17:25:11.131Z,39.90
2023-04-15T17:28:19.990Z,39.92
2023-04-15T17:31:25.805Z,40.76
2023-04-15T17:34:51.558Z,40.68
2023-04-15T17:37:55.578Z,40.87
2023-04-15T17:41:18.948Z,41.11
2023-04-15T17:44:42.763Z,41.37
2023-04-15T17:48:06.262Z,41.93
2023-04-15T17:51:31.833Z,42.57
2023-04-15T17:55:03.787Z,42.91
2023-04-15T17:58:28.194Z,43.78
2023-04-15T18:01:51.972Z,43.45
2023-04-15T18:05:16.474Z,43.02
2023-04-15T18:08:42.621Z,43.94
2023-04-15T18:12:07.776Z,44.17
2023-04-15T18:15:31.619Z,44.27
2023-04-15T18:18:55.868Z,44.32
2023-04-15T18:22:00.246Z,44.67
2023-04-15T18:25:06.958Z,44.29
2023-04-15T18:28:10.579Z,44.83
2023-04-15T18:31:14.302Z,45.20
2023-04-15T18:34:17.916Z,44.98
2023-04-15T18:37:21.763Z,45.29
2023-04-15T18:40:26.712Z,45.03
2023-04-15T18:43:32.384Z,45.34
2023-04-15T18:46:36.216Z,45.87
2023-04-15T18:49:41.597Z,45.50
2023-04-15T18:52:45.103Z,45.82
2023-04-15T18:55:51.025Z,45.79
2023-04-15T18:59:28.105Z,47.03
2023-04-15T19:02:19.693Z,46.62
2023-04-15T19:05:25.429Z,45.90
2023-04-15T19:08:29.921Z,46.66
2023-04-15T19:11:34.875Z,47.00
2023-04-15T19:14:38.595Z,46.63
2023-04-15T19:17:42.693Z,46.53
2023-04-15T19:20:46.717Z,46.69
2023-04-15T19:23:50.303Z,46.48
2023-04-15T19:26:57.191Z,46.00
2023-04-15T19:30:01.967Z,46.42
2023-04-15T19:33:05.768Z,47.39
2023-04-15T19:36:09.385Z,47.74
2023-04-15T19:39:13.663Z,47.60
2023-04-15T19:42:18.509Z,46.90
2023-04-15T19:45:22.256Z,47.54
2023-04-15T19:48:26.500Z,47.74
2023-04-15T19:51:31.974Z,47.69
2023-04-15T19:54:35.540Z,47.68
2023-04-15T19:57:41.041Z,47.32
2023-04-15T20:00:44.645Z,47.07
2023-04-15T20:03:48.897Z,47.30
2023-04-15T20:06:52.599Z,47.42
2023-04-15T20:09:56.465Z,47.49
2023-04-15T20:13:01.259Z,47.68
2023-04-15T20:16:07.939Z,47.33
2023-04-15T20:19:12.417Z,47.44
2023-04-15T20:22:16.377Z,47.98
2023-04-15T20:25:20.070Z,47.81
2023-04-15T20:28:27.513Z,47.61
2023-04-15T20:31:31.181Z,47.69
2023-04-15T20:34:35.150Z,47.70
2023-04-15T20:37:40.468Z,47.67
2023-04-15T20:40:44.465Z,47.85
2023-04-15T20:43:49.254Z,48.10
2023-04-15T20:46:53.663Z,47.95
2023-04-15T20:49:57.048Z,47.80
2023-04-15T20:53:01.363Z,48.39
2023-04-15T20:56:06.679Z,48.30
2023-04-15T20:59:12.089Z,48.40
2023-04-15T21:02:15.890Z,48.64
2023-04-15T21:05:21.662Z,48.79
2023-04-15T21:08:55.113Z,48.55
2023-04-15T21:12:27.100Z,49.10
2023-04-15T21:15:31.931Z,48.85
2023-04-15T21:18:35.780Z,49.13
2023-04-15T21:21:39.306Z,48.96
2023-04-15T21:24:43.064Z,48.90
2023-04-15T21:27:46.752Z,48.81
2023-04-15T21:30:51.781Z,49.62
2023-04-15T21:33:55.361Z,49.70
2023-04-15T21:36:59.036Z,49.13
2023-04-15T21:40:02.455Z,49.71
2023-04-15T21:43:06.328Z,49.45
2023-04-15T21:46:22.248Z,49.57
2023-04-15T21:49:30.664Z,49.84
2023-04-15T21:52:34.222Z,49.80
2023-04-15T21:55:38.117Z,49.52
2023-04-15T21:58:43.880Z,50.20
2023-04-15T22:01:51.679Z,49.96
2023-04-15T22:04:55.282Z,50.92
2023-04-15T22:08:04.680Z,50.27
2023-04-15T22:11:08.081Z,49.88
2023-04-15T22:14:11.816Z,50.53
2023-04-15T22:17:16.618Z,52.14
2023-04-15T22:20:20.364Z,51.20
2023-04-15T22:23:23.865Z,51.59
2023-04-15T22:26:28.210Z,52.15
2023-04-15T22:29:32.427Z,51.19
2023-04-15T22:32:39.213Z,50.83
2023-04-15T22:35:42.799Z,51.38
2023-04-15T22:38:47.710Z,50.80
2023-04-15T22:41:53.133Z,51.00
2023-04-15T22:44:56.951Z,50.52
2023-04-15T22:48:02.627Z,50.71
2023-04-15T22:51:06.667Z,50.66
2023-04-15T22:54:10.157Z,51.74
2023-04-15T22:57:14.056Z,52.26
2023-04-15T23:00:17.636Z,52.22
2023-04-15T23:03:22.924Z,52.21
2023-04-15T23:06:27.141Z,51.84
2023-04-15T23:09:31.115Z,52.93
2023-04-15T23:12:34.700Z,52.32
2023-04-15T23:15:38.393Z,51.64
2023-04-15T23:18:43.196Z,51.39
2023-04-15T23:21:47.087Z,51.68
2023-04-15T23:24:50.475Z,51.67
2023-04-15T23:27:54.322Z,51.51
2023-04-15T23:31:00.437Z,51.81
2023-04-15T23:34:06.486Z,52.08
2023-04-15T23:37:10.189Z,52.31
2023-04-15T23:40:15.684Z,51.89
2023-04-15T23:43:19.208Z,51.47
2023-04-15T23:46:23.059Z,52.05
2023-04-15T23:49:27.925Z,51.38
2023-04-15T23:52:31.926Z,51.42
2023-04-15T23:55:35.954Z,51.89
2023-04-15T23:58:39.727Z,51.84
